sensor_id;sensor_type;location;lat;lon;timestamp;pressure;altitude;pressure_sealevel;temperature;humidity
41636;BME280;27623;51.966;4.602;2022-07-05T00:01:49;102120.47;;;19.13;80.26
41636;BME280;27623;51.966;4.602;2022-07-05T00:04:15;102123.59;;;19.26;79.85
41636;BME280;27623;51.966;4.602;2022-07-05T00:06:40;102119.16;;;19.29;79.60
41636;BME280;27623;51.966;4.602;2022-07-05T00:09:26;102111.66;;;19.17;80.25
41636;BME280;27623;51.966;4.602;2022-07-05T00:11:51;102120.00;;;18.99;81.31
41636;BME280;27623;51.966;4.602;2022-07-05T00:14:17;102115.31;;;19.11;81.42
41636;BME280;27623;51.966;4.602;2022-07-05T00:16:42;102115.03;;;19.20;81.18
41636;BME280;27623;51.966;4.602;2022-07-05T00:19:08;102121.22;;;19.16;81.28
41636;BME280;27623;51.966;4.602;2022-07-05T00:21:33;102114.84;;;18.96;82.20
41636;BME280;27623;51.966;4.602;2022-07-05T00:23:58;102120.78;;;19.02;81.58
41636;BME280;27623;51.966;4.602;2022-07-05T00:26:24;102114.91;;;19.25;80.30
41636;BME280;27623;51.966;4.602;2022-07-05T00:28:49;102117.19;;;19.06;80.85
41636;BME280;27623;51.966;4.602;2022-07-05T00:31:15;102120.56;;;19.10;81.60
41636;BME280;27623;51.966;4.602;2022-07-05T00:33:40;102126.75;;;19.37;79.29
41636;BME280;27623;51.966;4.602;2022-07-05T00:36:06;102127.09;;;19.25;80.43
41636;BME280;27623;51.966;4.602;2022-07-05T00:38:31;102119.97;;;19.31;80.95
41636;BME280;27623;51.966;4.602;2022-07-05T00:40:56;102108.19;;;19.16;81.31
41636;BME280;27623;51.966;4.602;2022-07-05T00:43:22;102110.03;;;19.13;80.79
41636;BME280;27623;51.966;4.602;2022-07-05T00:45:47;102108.16;;;19.18;80.00
41636;BME280;27623;51.966;4.602;2022-07-05T00:48:15;102102.91;;;19.19;79.21
41636;BME280;27623;51.966;4.602;2022-07-05T00:50:42;102106.63;;;19.11;79.18
41636;BME280;27623;51.966;4.602;2022-07-05T00:53:07;102102.41;;;19.07;79.80
41636;BME280;27623;51.966;4.602;2022-07-05T00:55:33;102102.44;;;19.05;80.77
41636;BME280;27623;51.966;4.602;2022-07-05T00:58:01;102099.94;;;19.01;80.89
41636;BME280;27623;51.966;4.602;2022-07-05T01:00:26;102111.34;;;18.97;81.62
41636;BME280;27623;51.966;4.602;2022-07-05T01:02:51;102111.16;;;19.04;80.93
41636;BME280;27623;51.966;4.602;2022-07-05T01:05:18;102105.22;;;18.99;80.79
41636;BME280;27623;51.966;4.602;2022-07-05T01:07:44;102108.31;;;18.81;82.41
41636;BME280;27623;51.966;4.602;2022-07-05T01:10:09;102110.41;;;18.68;83.68
41636;BME280;27623;51.966;4.602;2022-07-05T01:12:38;102104.53;;;18.59;84.44
41636;BME280;27623;51.966;4.602;2022-07-05T01:15:04;102111.25;;;18.69;83.77
41636;BME280;27623;51.966;4.602;2022-07-05T01:17:30;102114.00;;;18.63;83.80
41636;BME280;27623;51.966;4.602;2022-07-05T01:19:56;102116.84;;;18.52;83.92
41636;BME280;27623;51.966;4.602;2022-07-05T01:22:25;102118.06;;;18.39;85.09
41636;BME280;27623;51.966;4.602;2022-07-05T01:24:52;102111.81;;;18.46;84.82
41636;BME280;27623;51.966;4.602;2022-07-05T01:27:19;102119.75;;;18.40;85.05
41636;BME280;27623;51.966;4.602;2022-07-05T01:29:45;102116.75;;;18.21;86.16
41636;BME280;27623;51.966;4.602;2022-07-05T01:32:11;102115.59;;;18.33;85.86
41636;BME280;27623;51.966;4.602;2022-07-05T01:34:38;102117.97;;;18.42;85.03
41636;BME280;27623;51.966;4.602;2022-07-05T01:37:05;102118.22;;;18.31;85.89
41636;BME280;27623;51.966;4.602;2022-07-05T01:39:31;102120.34;;;18.15;86.91
41636;BME280;27623;51.966;4.602;2022-07-05T01:41:57;102121.34;;;18.10;87.35
41636;BME280;27623;51.966;4.602;2022-07-05T01:44:25;102114.72;;;18.32;85.86
41636;BME280;27623;51.966;4.602;2022-07-05T01:46:54;102113.47;;;18.48;84.46
41636;BME280;27623;51.966;4.602;2022-07-05T01:49:21;102111.38;;;18.29;85.37
41636;BME280;27623;51.966;4.602;2022-07-05T01:51:51;102118.44;;;18.24;85.71
41636;BME280;27623;51.966;4.602;2022-07-05T01:54:19;102115.22;;;18.12;86.29
41636;BME280;27623;51.966;4.602;2022-07-05T01:56:44;102124.72;;;18.13;87.06
41636;BME280;27623;51.966;4.602;2022-07-05T01:59:11;102111.50;;;17.85;88.24
41636;BME280;27623;51.966;4.602;2022-07-05T02:01:38;102114.53;;;18.06;87.84
41636;BME280;27623;51.966;4.602;2022-07-05T02:04:05;102108.63;;;18.33;85.01
41636;BME280;27623;51.966;4.602;2022-07-05T02:06:32;102110.69;;;18.20;85.35
41636;BME280;27623;51.966;4.602;2022-07-05T02:08:59;102109.38;;;18.03;86.37
41636;BME280;27623;51.966;4.602;2022-07-05T02:11:25;102113.25;;;18.22;85.64
41636;BME280;27623;51.966;4.602;2022-07-05T02:13:50;102108.34;;;18.08;86.20
41636;BME280;27623;51.966;4.602;2022-07-05T02:16:15;102117.63;;;17.83;87.29
41636;BME280;27623;51.966;4.602;2022-07-05T02:18:41;102108.81;;;17.89;87.41
41636;BME280;27623;51.966;4.602;2022-07-05T02:21:06;102111.69;;;18.15;85.43
41636;BME280;27623;51.966;4.602;2022-07-05T02:23:32;102112.97;;;17.97;86.06
41636;BME280;27623;51.966;4.602;2022-07-05T02:25:57;102111.34;;;17.92;86.45
41636;BME280;27623;51.966;4.602;2022-07-05T02:28:22;102112.38;;;17.86;87.42
41636;BME280;27623;51.966;4.602;2022-07-05T02:30:48;102110.16;;;17.68;87.75
41636;BME280;27623;51.966;4.602;2022-07-05T02:33:13;102105.00;;;17.66;88.25
41636;BME280;27623;51.966;4.602;2022-07-05T02:35:38;102109.22;;;17.70;88.30
41636;BME280;27623;51.966;4.602;2022-07-05T02:38:04;102107.50;;;17.69;87.91
41636;BME280;27623;51.966;4.602;2022-07-05T02:40:29;102113.03;;;17.94;87.37
41636;BME280;27623;51.966;4.602;2022-07-05T02:42:55;102108.19;;;17.79;87.95
41636;BME280;27623;51.966;4.602;2022-07-05T02:45:21;102106.66;;;17.69;88.85
41636;BME280;27623;51.966;4.602;2022-07-05T02:47:46;102104.84;;;17.72;87.97
41636;BME280;27623;51.966;4.602;2022-07-05T02:50:12;102104.31;;;17.57;88.65
41636;BME280;27623;51.966;4.602;2022-07-05T02:52:38;102102.47;;;17.62;88.47
41636;BME280;27623;51.966;4.602;2022-07-05T02:55:05;102111.41;;;17.89;86.18
41636;BME280;27623;51.966;4.602;2022-07-05T02:57:30;102115.59;;;17.56;87.32
41636;BME280;27623;51.966;4.602;2022-07-05T02:59:56;102113.00;;;17.96;85.79
41636;BME280;27623;51.966;4.602;2022-07-05T03:02:22;102110.22;;;17.66;87.46
41636;BME280;27623;51.966;4.602;2022-07-05T03:04:49;102117.31;;;17.57;88.46
41636;BME280;27623;51.966;4.602;2022-07-05T03:07:15;102117.78;;;17.75;87.51
41636;BME280;27623;51.966;4.602;2022-07-05T03:09:40;102120.28;;;17.81;86.21
41636;BME280;27623;51.966;4.602;2022-07-05T03:12:06;102116.78;;;17.82;86.26
41636;BME280;27623;51.966;4.602;2022-07-05T03:14:31;102115.00;;;17.84;86.80
41636;BME280;27623;51.966;4.602;2022-07-05T03:16:57;102117.69;;;17.80;87.20
41636;BME280;27623;51.966;4.602;2022-07-05T03:19:22;102123.00;;;17.75;88.38
41636;BME280;27623;51.966;4.602;2022-07-05T03:21:48;102121.19;;;17.79;88.89
41636;BME280;27623;51.966;4.602;2022-07-05T03:24:13;102125.47;;;17.81;88.97
41636;BME280;27623;51.966;4.602;2022-07-05T03:26:38;102120.34;;;17.78;89.35
41636;BME280;27623;51.966;4.602;2022-07-05T03:29:07;102124.66;;;17.79;89.85
41636;BME280;27623;51.966;4.602;2022-07-05T03:31:33;102120.78;;;17.57;90.45
41636;BME280;27623;51.966;4.602;2022-07-05T03:33:58;102129.91;;;17.35;92.40
41636;BME280;27623;51.966;4.602;2022-07-05T03:36:24;102129.06;;;17.33;93.91
41636;BME280;27623;51.966;4.602;2022-07-05T03:38:50;102139.03;;;17.54;92.79
41636;BME280;27623;51.966;4.602;2022-07-05T03:41:16;102134.69;;;17.55;92.19
41636;BME280;27623;51.966;4.602;2022-07-05T03:43:41;102137.00;;;17.70;92.07
41636;BME280;27623;51.966;4.602;2022-07-05T03:46:06;102141.63;;;17.96;90.08
41636;BME280;27623;51.966;4.602;2022-07-05T03:48:33;102143.91;;;17.71;91.81
41636;BME280;27623;51.966;4.602;2022-07-05T03:51:01;102134.19;;;17.79;91.49
41636;BME280;27623;51.966;4.602;2022-07-05T03:53:27;102134.50;;;17.65;92.93
41636;BME280;27623;51.966;4.602;2022-07-05T03:55:52;102133.34;;;17.78;93.54
41636;BME280;27623;51.966;4.602;2022-07-05T03:58:20;102138.16;;;17.95;92.36
41636;BME280;27623;51.966;4.602;2022-07-05T04:00:45;102130.22;;;18.01;91.73
41636;BME280;27623;51.966;4.602;2022-07-05T04:03:11;102136.25;;;18.03;91.16
41636;BME280;27623;51.966;4.602;2022-07-05T04:05:37;102135.00;;;17.82;91.80
41636;BME280;27623;51.966;4.602;2022-07-05T04:08:02;102124.81;;;17.72;92.81
41636;BME280;27623;51.966;4.602;2022-07-05T04:10:28;102135.38;;;17.66;94.11
41636;BME280;27623;51.966;4.602;2022-07-05T04:12:54;102146.63;;;17.66;94.26
41636;BME280;27623;51.966;4.602;2022-07-05T04:15:19;102147.41;;;17.70;93.96
41636;BME280;27623;51.966;4.602;2022-07-05T04:17:46;102146.72;;;17.60;93.95
41636;BME280;27623;51.966;4.602;2022-07-05T04:20:12;102142.22;;;17.68;93.12
41636;BME280;27623;51.966;4.602;2022-07-05T04:22:37;102139.19;;;17.88;91.34
41636;BME280;27623;51.966;4.602;2022-07-05T04:25:04;102140.88;;;17.91;91.66
41636;BME280;27623;51.966;4.602;2022-07-05T04:27:51;102148.97;;;17.78;92.63
41636;BME280;27623;51.966;4.602;2022-07-05T04:30:19;102142.66;;;17.89;92.86
41636;BME280;27623;51.966;4.602;2022-07-05T04:32:44;102144.47;;;17.87;92.90
41636;BME280;27623;51.966;4.602;2022-07-05T04:35:11;102148.84;;;17.84;92.72
41636;BME280;27623;51.966;4.602;2022-07-05T04:37:37;102162.06;;;17.74;94.68
41636;BME280;27623;51.966;4.602;2022-07-05T04:40:05;102151.25;;;17.92;94.29
41636;BME280;27623;51.966;4.602;2022-07-05T04:42:31;102157.47;;;17.87;94.63
41636;BME280;27623;51.966;4.602;2022-07-05T04:44:56;102157.88;;;17.67;95.59
41636;BME280;27623;51.966;4.602;2022-07-05T04:47:22;102151.00;;;17.63;95.88
41636;BME280;27623;51.966;4.602;2022-07-05T04:49:50;102158.50;;;17.78;95.11
41636;BME280;27623;51.966;4.602;2022-07-05T04:52:18;102162.69;;;17.87;94.12
41636;BME280;27623;51.966;4.602;2022-07-05T04:54:43;102155.38;;;18.02;92.32
41636;BME280;27623;51.966;4.602;2022-07-05T04:57:09;102157.72;;;18.13;92.03
41636;BME280;27623;51.966;4.602;2022-07-05T04:59:34;102154.22;;;18.14;92.12
41636;BME280;27623;51.966;4.602;2022-07-05T05:02:00;102151.94;;;18.00;92.69
41636;BME280;27623;51.966;4.602;2022-07-05T05:04:25;102154.75;;;17.91;94.18
41636;BME280;27623;51.966;4.602;2022-07-05T05:06:51;102152.94;;;17.95;94.60
41636;BME280;27623;51.966;4.602;2022-07-05T05:09:16;102157.25;;;17.96;95.57
41636;BME280;27623;51.966;4.602;2022-07-05T05:11:42;102157.94;;;18.04;95.84
41636;BME280;27623;51.966;4.602;2022-07-05T05:14:08;102154.38;;;18.08;95.00
41636;BME280;27623;51.966;4.602;2022-07-05T05:16:33;102155.91;;;18.16;95.23
41636;BME280;27623;51.966;4.602;2022-07-05T05:18:58;102161.91;;;18.20;95.15
41636;BME280;27623;51.966;4.602;2022-07-05T05:21:24;102165.28;;;18.25;96.28
41636;BME280;27623;51.966;4.602;2022-07-05T05:23:49;102162.53;;;18.30;92.08
41636;BME280;27623;51.966;4.602;2022-07-05T05:26:15;102169.34;;;18.35;91.17
41636;BME280;27623;51.966;4.602;2022-07-05T05:28:40;102172.50;;;18.49;92.63
41636;BME280;27623;51.966;4.602;2022-07-05T05:31:06;102171.41;;;18.60;93.74
41636;BME280;27623;51.966;4.602;2022-07-05T05:33:33;102173.16;;;18.58;93.69
41636;BME280;27623;51.966;4.602;2022-07-05T05:35:58;102174.09;;;18.55;92.57
41636;BME280;27623;51.966;4.602;2022-07-05T05:38:24;102175.03;;;18.51;91.55
41636;BME280;27623;51.966;4.602;2022-07-05T05:40:49;102175.88;;;18.53;89.36
41636;BME280;27623;51.966;4.602;2022-07-05T05:43:14;102175.78;;;18.56;88.55
41636;BME280;27623;51.966;4.602;2022-07-05T05:45:40;102172.97;;;18.67;87.88
41636;BME280;27623;51.966;4.602;2022-07-05T05:48:05;102174.69;;;18.68;88.23
41636;BME280;27623;51.966;4.602;2022-07-05T05:50:33;102167.75;;;18.67;88.95
41636;BME280;27623;51.966;4.602;2022-07-05T05:52:59;102166.72;;;18.72;87.20
41636;BME280;27623;51.966;4.602;2022-07-05T05:55:27;102170.00;;;18.80;87.45
41636;BME280;27623;51.966;4.602;2022-07-05T05:57:53;102176.06;;;18.81;85.58
41636;BME280;27623;51.966;4.602;2022-07-05T06:00:20;102169.91;;;18.85;85.13
41636;BME280;27623;51.966;4.602;2022-07-05T06:02:47;102185.53;;;18.85;84.63
41636;BME280;27623;51.966;4.602;2022-07-05T06:05:13;102177.50;;;18.93;84.23
41636;BME280;27623;51.966;4.602;2022-07-05T06:07:49;102185.31;;;18.93;83.59
41636;BME280;27623;51.966;4.602;2022-07-05T06:10:24;102197.34;;;18.98;83.21
41636;BME280;27623;51.966;4.602;2022-07-05T06:12:51;102193.88;;;18.98;82.66
41636;BME280;27623;51.966;4.602;2022-07-05T06:15:17;102195.56;;;19.00;82.76
41636;BME280;27623;51.966;4.602;2022-07-05T06:17:43;102204.38;;;18.95;80.76
41636;BME280;27623;51.966;4.602;2022-07-05T06:20:11;102194.75;;;18.98;81.15
41636;BME280;27623;51.966;4.602;2022-07-05T06:22:40;102204.13;;;19.05;81.87
41636;BME280;27623;51.966;4.602;2022-07-05T06:25:06;102210.47;;;18.95;80.53
41636;BME280;27623;51.966;4.602;2022-07-05T06:27:32;102196.31;;;19.05;81.27
41636;BME280;27623;51.966;4.602;2022-07-05T06:30:05;102206.59;;;19.11;81.94
41636;BME280;27623;51.966;4.602;2022-07-05T06:32:31;102213.53;;;19.11;79.99
41636;BME280;27623;51.966;4.602;2022-07-05T06:34:56;102210.84;;;19.14;79.09
41636;BME280;27623;51.966;4.602;2022-07-05T06:37:21;102216.03;;;19.14;77.91
41636;BME280;27623;51.966;4.602;2022-07-05T06:39:47;102211.50;;;19.22;78.34
41636;BME280;27623;51.966;4.602;2022-07-05T06:42:13;102213.13;;;19.26;80.05
41636;BME280;27623;51.966;4.602;2022-07-05T06:44:41;102219.22;;;19.27;78.92
41636;BME280;27623;51.966;4.602;2022-07-05T06:47:07;102225.25;;;19.29;76.96
41636;BME280;27623;51.966;4.602;2022-07-05T06:49:32;102225.94;;;19.34;75.54
41636;BME280;27623;51.966;4.602;2022-07-05T06:51:58;102225.03;;;19.36;73.65
41636;BME280;27623;51.966;4.602;2022-07-05T06:54:23;102228.44;;;19.38;73.61
41636;BME280;27623;51.966;4.602;2022-07-05T06:56:49;102228.31;;;19.43;71.16
41636;BME280;27623;51.966;4.602;2022-07-05T06:59:14;102232.53;;;19.48;71.22
41636;BME280;27623;51.966;4.602;2022-07-05T07:01:39;102234.09;;;19.55;72.23
41636;BME280;27623;51.966;4.602;2022-07-05T07:04:05;102233.06;;;19.61;70.66
41636;BME280;27623;51.966;4.602;2022-07-05T07:06:30;102231.34;;;19.60;69.95
41636;BME280;27623;51.966;4.602;2022-07-05T07:08:55;102227.06;;;19.58;69.03
41636;BME280;27623;51.966;4.602;2022-07-05T07:11:39;102227.16;;;19.54;69.30
41636;BME280;27623;51.966;4.602;2022-07-05T07:14:05;102233.91;;;19.62;69.47
41636;BME280;27623;51.966;4.602;2022-07-05T07:16:30;102235.59;;;19.64;67.05
41636;BME280;27623;51.966;4.602;2022-07-05T07:18:56;102232.09;;;19.65;66.74
41636;BME280;27623;51.966;4.602;2022-07-05T07:21:22;102237.22;;;19.68;68.04
41636;BME280;27623;51.966;4.602;2022-07-05T07:23:50;102238.13;;;19.67;67.59
41636;BME280;27623;51.966;4.602;2022-07-05T07:26:16;102236.38;;;19.68;67.89
41636;BME280;27623;51.966;4.602;2022-07-05T07:28:42;102239.09;;;19.63;67.92
41636;BME280;27623;51.966;4.602;2022-07-05T07:31:07;102246.97;;;19.62;68.89
41636;BME280;27623;51.966;4.602;2022-07-05T07:33:33;102252.19;;;19.62;68.41
41636;BME280;27623;51.966;4.602;2022-07-05T07:35:59;102252.06;;;19.66;68.17
41636;BME280;27623;51.966;4.602;2022-07-05T07:38:24;102251.06;;;19.72;67.30
41636;BME280;27623;51.966;4.602;2022-07-05T07:40:51;102253.47;;;19.78;67.26
41636;BME280;27623;51.966;4.602;2022-07-05T07:43:17;102256.88;;;19.80;66.25
41636;BME280;27623;51.966;4.602;2022-07-05T07:45:42;102257.59;;;19.86;65.64
41636;BME280;27623;51.966;4.602;2022-07-05T07:48:08;102260.31;;;19.82;64.86
41636;BME280;27623;51.966;4.602;2022-07-05T07:50:33;102258.47;;;19.85;64.38
41636;BME280;27623;51.966;4.602;2022-07-05T07:52:59;102258.06;;;19.99;63.97
41636;BME280;27623;51.966;4.602;2022-07-05T07:55:24;102256.59;;;19.90;64.46
41636;BME280;27623;51.966;4.602;2022-07-05T07:57:50;102258.69;;;19.78;64.47
41636;BME280;27623;51.966;4.602;2022-07-05T08:00:16;102260.19;;;19.86;65.19
41636;BME280;27623;51.966;4.602;2022-07-05T08:02:41;102259.47;;;19.81;65.18
41636;BME280;27623;51.966;4.602;2022-07-05T08:05:07;102261.44;;;19.73;64.59
41636;BME280;27623;51.966;4.602;2022-07-05T08:07:37;102265.84;;;19.71;64.10
41636;BME280;27623;51.966;4.602;2022-07-05T08:10:07;102265.13;;;19.66;61.36
41636;BME280;27623;51.966;4.602;2022-07-05T08:12:32;102269.22;;;19.75;61.06
41636;BME280;27623;51.966;4.602;2022-07-05T08:14:58;102265.34;;;19.89;59.58
41636;BME280;27623;51.966;4.602;2022-07-05T08:17:26;102265.91;;;19.99;58.47
41636;BME280;27623;51.966;4.602;2022-07-05T08:19:52;102263.00;;;20.10;57.84
41636;BME280;27623;51.966;4.602;2022-07-05T08:22:36;102262.19;;;20.08;58.25
41636;BME280;27623;51.966;4.602;2022-07-05T08:25:01;102267.75;;;20.25;58.18
41636;BME280;27623;51.966;4.602;2022-07-05T08:27:26;102267.63;;;20.30;58.60
41636;BME280;27623;51.966;4.602;2022-07-05T08:29:52;102267.53;;;20.33;58.51
41636;BME280;27623;51.966;4.602;2022-07-05T08:32:17;102265.78;;;20.33;58.23
41636;BME280;27623;51.966;4.602;2022-07-05T08:34:43;102267.53;;;20.33;57.80
41636;BME280;27623;51.966;4.602;2022-07-05T08:37:08;102262.84;;;20.44;57.13
41636;BME280;27623;51.966;4.602;2022-07-05T08:39:35;102253.97;;;20.49;57.25
41636;BME280;27623;51.966;4.602;2022-07-05T08:42:01;102260.91;;;20.50;55.12
41636;BME280;27623;51.966;4.602;2022-07-05T08:44:29;102254.53;;;20.59;56.14
41636;BME280;27623;51.966;4.602;2022-07-05T08:46:56;102261.84;;;20.76;56.35
41636;BME280;27623;51.966;4.602;2022-07-05T08:49:24;102254.16;;;20.71;54.57
41636;BME280;27623;51.966;4.602;2022-07-05T08:51:50;102257.00;;;20.90;55.20
41636;BME280;27623;51.966;4.602;2022-07-05T08:54:16;102260.00;;;21.04;55.38
41636;BME280;27623;51.966;4.602;2022-07-05T08:56:42;102253.38;;;21.20;55.08
41636;BME280;27623;51.966;4.602;2022-07-05T08:59:08;102251.47;;;21.25;55.02
41636;BME280;27623;51.966;4.602;2022-07-05T09:01:35;102256.00;;;21.20;55.34
41636;BME280;27623;51.966;4.602;2022-07-05T09:04:03;102264.19;;;21.10;54.57
41636;BME280;27623;51.966;4.602;2022-07-05T09:06:31;102265.28;;;21.03;53.77
41636;BME280;27623;51.966;4.602;2022-07-05T09:08:58;102266.75;;;20.85;53.05
41636;BME280;27623;51.966;4.602;2022-07-05T09:11:31;102266.28;;;20.74;54.14
41636;BME280;27623;51.966;4.602;2022-07-05T09:14:02;102268.88;;;21.00;54.34
41636;BME280;27623;51.966;4.602;2022-07-05T09:16:28;102264.81;;;20.91;55.54
41636;BME280;27623;51.966;4.602;2022-07-05T09:18:54;102273.50;;;20.92;55.96
41636;BME280;27623;51.966;4.602;2022-07-05T09:21:26;102276.09;;;20.93;55.87
41636;BME280;27623;51.966;4.602;2022-07-05T09:23:56;102277.84;;;20.93;54.64
41636;BME280;27623;51.966;4.602;2022-07-05T09:26:38;102272.84;;;20.85;55.23
41636;BME280;27623;51.966;4.602;2022-07-05T09:29:07;102279.22;;;21.03;55.38
41636;BME280;27623;51.966;4.602;2022-07-05T09:31:35;102282.78;;;21.29;56.21
41636;BME280;27623;51.966;4.602;2022-07-05T09:34:14;102287.00;;;21.57;54.92
41636;BME280;27623;51.966;4.602;2022-07-05T09:36:53;102297.88;;;21.70;53.52
41636;BME280;27623;51.966;4.602;2022-07-05T09:42:13;102290.94;;;21.44;54.13
41636;BME280;27623;51.966;4.602;2022-07-05T09:44:44;102294.25;;;21.49;54.16
41636;BME280;27623;51.966;4.602;2022-07-05T09:47:11;102297.94;;;21.69;53.26
41636;BME280;27623;51.966;4.602;2022-07-05T09:49:48;102292.88;;;21.87;52.84
41636;BME280;27623;51.966;4.602;2022-07-05T09:52:28;102298.22;;;22.09;53.55
41636;BME280;27623;51.966;4.602;2022-07-05T09:55:15;102300.44;;;22.20;53.34
41636;BME280;27623;51.966;4.602;2022-07-05T09:57:42;102303.91;;;21.72;51.02
41636;BME280;27623;51.966;4.602;2022-07-05T10:00:19;102300.28;;;21.76;52.22
41636;BME280;27623;51.966;4.602;2022-07-05T10:02:50;102292.28;;;21.81;51.93
41636;BME280;27623;51.966;4.602;2022-07-05T10:05:18;102294.78;;;22.07;51.61
41636;BME280;27623;51.966;4.602;2022-07-05T10:07:48;102308.22;;;21.98;50.74
41636;BME280;27623;51.966;4.602;2022-07-05T10:10:21;102310.94;;;21.95;51.59
41636;BME280;27623;51.966;4.602;2022-07-05T10:12:48;102307.09;;;22.05;50.22
41636;BME280;27623;51.966;4.602;2022-07-05T10:15:17;102303.84;;;21.99;50.55
41636;BME280;27623;51.966;4.602;2022-07-05T10:17:46;102299.28;;;22.27;50.43
41636;BME280;27623;51.966;4.602;2022-07-05T10:20:28;102311.19;;;22.36;51.77
41636;BME280;27623;51.966;4.602;2022-07-05T10:22:55;102312.84;;;22.38;50.48
41636;BME280;27623;51.966;4.602;2022-07-05T10:25:23;102307.69;;;22.58;49.61
41636;BME280;27623;51.966;4.602;2022-07-05T10:27:50;102312.13;;;22.56;49.84
41636;BME280;27623;51.966;4.602;2022-07-05T10:30:20;102308.78;;;22.53;50.44
41636;BME280;27623;51.966;4.602;2022-07-05T10:32:47;102305.13;;;22.57;50.74
41636;BME280;27623;51.966;4.602;2022-07-05T10:35:15;102308.63;;;22.79;50.81
41636;BME280;27623;51.966;4.602;2022-07-05T10:37:41;102310.50;;;22.98;49.67
41636;BME280;27623;51.966;4.602;2022-07-05T10:40:07;102317.41;;;23.00;50.11
41636;BME280;27623;51.966;4.602;2022-07-05T10:50:44;102331.28;;;22.82;48.44
41636;BME280;27623;51.966;4.602;2022-07-05T10:53:09;102320.88;;;23.01;49.26
41636;BME280;27623;51.966;4.602;2022-07-05T11:00:40;102317.44;;;23.41;47.44
41636;BME280;27623;51.966;4.602;2022-07-05T11:03:06;102342.66;;;23.03;45.51
41636;BME280;27623;51.966;4.602;2022-07-05T11:05:32;102331.72;;;23.13;46.64
41636;BME280;27623;51.966;4.602;2022-07-05T11:08:02;102327.63;;;23.48;45.18
41636;BME280;27623;51.966;4.602;2022-07-05T11:10:31;102330.97;;;23.52;45.37
41636;BME280;27623;51.966;4.602;2022-07-05T11:12:57;102340.19;;;23.62;45.42
41636;BME280;27623;51.966;4.602;2022-07-05T11:15:24;102340.31;;;23.59;44.75
41636;BME280;27623;51.966;4.602;2022-07-05T11:18:15;102348.66;;;23.69;44.03
41636;BME280;27623;51.966;4.602;2022-07-05T11:20:41;102346.09;;;23.67;44.22
41636;BME280;27623;51.966;4.602;2022-07-05T11:23:10;102345.75;;;23.54;43.11
41636;BME280;27623;51.966;4.602;2022-07-05T11:25:42;102353.47;;;23.37;44.44
41636;BME280;27623;51.966;4.602;2022-07-05T11:28:15;102348.81;;;23.02;43.11
41636;BME280;27623;51.966;4.602;2022-07-05T11:30:52;102347.97;;;23.43;44.49
41636;BME280;27623;51.966;4.602;2022-07-05T11:35:52;102349.53;;;24.08;42.61
41636;BME280;27623;51.966;4.602;2022-07-05T11:38:18;102349.09;;;24.17;40.23
41636;BME280;27623;51.966;4.602;2022-07-05T11:40:43;102350.66;;;24.21;40.44
41636;BME280;27623;51.966;4.602;2022-07-05T11:43:09;102345.81;;;24.51;39.93
41636;BME280;27623;51.966;4.602;2022-07-05T11:45:35;102349.16;;;24.91;40.25
41636;BME280;27623;51.966;4.602;2022-07-05T11:48:03;102350.28;;;24.85;40.23
41636;BME280;27623;51.966;4.602;2022-07-05T11:50:34;102350.28;;;24.49;38.32
41636;BME280;27623;51.966;4.602;2022-07-05T11:53:00;102351.34;;;24.45;37.98
41636;BME280;27623;51.966;4.602;2022-07-05T11:55:29;102350.81;;;24.56;37.80
41636;BME280;27623;51.966;4.602;2022-07-05T11:57:57;102355.00;;;24.60;38.70
41636;BME280;27623;51.966;4.602;2022-07-05T12:00:32;102357.78;;;24.38;38.58
41636;BME280;27623;51.966;4.602;2022-07-05T12:02:58;102345.28;;;24.43;37.37
41636;BME280;27623;51.966;4.602;2022-07-05T12:05:32;102350.13;;;24.52;39.55
41636;BME280;27623;51.966;4.602;2022-07-05T12:07:58;102356.78;;;24.59;39.22
41636;BME280;27623;51.966;4.602;2022-07-05T12:10:24;102351.56;;;24.77;38.11
41636;BME280;27623;51.966;4.602;2022-07-05T12:13:09;102362.84;;;24.43;36.63
41636;BME280;27623;51.966;4.602;2022-07-05T12:15:36;102371.38;;;24.29;37.81
41636;BME280;27623;51.966;4.602;2022-07-05T12:18:03;102349.16;;;24.16;38.82
41636;BME280;27623;51.966;4.602;2022-07-05T12:20:31;102351.75;;;23.97;39.55
41636;BME280;27623;51.966;4.602;2022-07-05T12:22:56;102353.84;;;24.09;40.31
41636;BME280;27623;51.966;4.602;2022-07-05T12:25:24;102365.09;;;23.92;39.23
41636;BME280;27623;51.966;4.602;2022-07-05T12:27:52;102364.19;;;23.93;39.17
41636;BME280;27623;51.966;4.602;2022-07-05T12:30:18;102364.75;;;24.00;39.68
41636;BME280;27623;51.966;4.602;2022-07-05T12:35:32;102352.47;;;24.01;40.32
41636;BME280;27623;51.966;4.602;2022-07-05T12:38:17;102358.81;;;24.15;40.53
41636;BME280;27623;51.966;4.602;2022-07-05T12:40:57;102347.94;;;24.04;40.39
41636;BME280;27623;51.966;4.602;2022-07-05T12:43:23;102349.94;;;24.18;40.25
41636;BME280;27623;51.966;4.602;2022-07-05T12:46:02;102357.28;;;24.67;39.61
41636;BME280;27623;51.966;4.602;2022-07-05T12:48:35;102350.91;;;25.09;38.73
41636;BME280;27623;51.966;4.602;2022-07-05T12:51:02;102353.94;;;25.36;36.20
41636;BME280;27623;51.966;4.602;2022-07-05T12:53:28;102355.84;;;25.15;36.85
41636;BME280;27623;51.966;4.602;2022-07-05T12:56:12;102360.03;;;24.83;37.43
41636;BME280;27623;51.966;4.602;2022-07-05T12:58:59;102357.91;;;24.91;37.43
41636;BME280;27623;51.966;4.602;2022-07-05T13:01:32;102360.81;;;25.21;36.57
41636;BME280;27623;51.966;4.602;2022-07-05T13:04:08;102361.47;;;24.90;36.42
41636;BME280;27623;51.966;4.602;2022-07-05T13:06:50;102371.56;;;24.81;37.70
41636;BME280;27623;51.966;4.602;2022-07-05T13:12:11;102367.66;;;24.89;38.96
41636;BME280;27623;51.966;4.602;2022-07-05T13:14:42;102366.00;;;25.40;36.92
41636;BME280;27623;51.966;4.602;2022-07-05T13:17:09;102363.88;;;25.98;35.04